Disclaimer

Please do not use the information listed here in-flight or in-navigation, as they are not provided to us by the airports but are provided by volunteers, so they might be outdated.

Search


Regions


Airport information page

Radio informations:
Tower (TWR) - 118.1 MHz
Ground (GND) - 121.8 MHz
Automatic Terminal Information Service (ATIS) - 133.7 MHz
Approach (APP) - 125.9 MHz

Airport informations:
Latitude: 46° 55' 39.88" N
Longitude: 028° 55' 51.52" E
Elevation: 399 feet - 122 meters
Operating hours: 24 hour operations
Operating agency: Civil government, landing fees and diplomatic clearance may be required
Timezone: UTC+2(+3DT) - Last Sunday in March to last Sunday in September
Fuel: N/A

Runway information:
08/26 - 11779 x 145 feet< - >3590 x 44 meters

Recent METARs:
LUKK 180630Z 32005KT 8000 BKN023 M00/M02 Q1029 R26/110095 NOSIG
LUKK 180700Z 31003KT 280V010 8000 OVC023 M00/M02 Q1029 R26/110095 NOSIG
LUKK 180730Z 32004KT 290V360 8000 OVC023 00/M02 Q1029 R26/110095 NOSIG

Airport on the map: